sensor_id;sensor_type;location;lat;lon;timestamp;pressure;altitude;pressure_sealevel;temperature;humidity
15263;BME280;7733;51.554;13.590;2023-11-22T00:00:54;101281.19;;;4.63;78.97
15263;BME280;7733;51.554;13.590;2023-11-22T00:03:20;101281.69;;;4.48;79.63
15263;BME280;7733;51.554;13.590;2023-11-22T00:05:46;101277.63;;;4.59;78.76
15263;BME280;7733;51.554;13.590;2023-11-22T00:08:12;101284.50;;;4.57;78.29
15263;BME280;7733;51.554;13.590;2023-11-22T00:10:38;101282.06;;;4.29;78.55
15263;BME280;7733;51.554;13.590;2023-11-22T00:13:04;101276.63;;;4.54;78.11
15263;BME280;7733;51.554;13.590;2023-11-22T00:15:30;101267.63;;;4.40;78.64
15263;BME280;7733;51.554;13.590;2023-11-22T00:17:56;101276.03;;;4.30;79.54
15263;BME280;7733;51.554;13.590;2023-11-22T00:20:29;101269.00;;;4.26;77.86
15263;BME280;7733;51.554;13.590;2023-11-22T00:22:56;101279.94;;;4.47;77.33
15263;BME280;7733;51.554;13.590;2023-11-22T00:25:22;101275.41;;;4.75;77.69
15263;BME280;7733;51.554;13.590;2023-11-22T00:27:48;101274.50;;;4.73;78.14
15263;BME280;7733;51.554;13.590;2023-11-22T00:30:14;101271.00;;;4.72;76.94
15263;BME280;7733;51.554;13.590;2023-11-22T00:32:40;101266.59;;;4.68;76.97
15263;BME280;7733;51.554;13.590;2023-11-22T00:35:07;101281.84;;;4.54;77.06
15263;BME280;7733;51.554;13.590;2023-11-22T00:37:34;101287.28;;;4.64;78.25
15263;BME280;7733;51.554;13.590;2023-11-22T00:40:01;101291.19;;;4.82;78.49
15263;BME280;7733;51.554;13.590;2023-11-22T00:42:39;101299.31;;;4.96;76.89
15263;BME280;7733;51.554;13.590;2023-11-22T00:45:07;101298.59;;;4.66;77.41
15263;BME280;7733;51.554;13.590;2023-11-22T00:47:34;101296.25;;;4.78;77.29
15263;BME280;7733;51.554;13.590;2023-11-22T00:50:00;101288.94;;;4.98;76.90
15263;BME280;7733;51.554;13.590;2023-11-22T00:52:26;101301.38;;;4.75;77.45
15263;BME280;7733;51.554;13.590;2023-11-22T00:54:53;101307.59;;;4.45;77.54
15263;BME280;7733;51.554;13.590;2023-11-22T00:57:18;101311.59;;;4.33;78.12
15263;BME280;7733;51.554;13.590;2023-11-22T00:59:44;101314.00;;;4.59;77.52
15263;BME280;7733;51.554;13.590;2023-11-22T01:02:10;101314.22;;;4.34;78.04
15263;BME280;7733;51.554;13.590;2023-11-22T01:04:35;101324.97;;;4.48;78.59
15263;BME280;7733;51.554;13.590;2023-11-22T01:07:03;101331.28;;;4.92;77.04
15263;BME280;7733;51.554;13.590;2023-11-22T01:09:35;101331.44;;;4.31;78.78
15263;BME280;7733;51.554;13.590;2023-11-22T01:12:01;101338.34;;;4.30;78.99
15263;BME280;7733;51.554;13.590;2023-11-22T01:14:27;101339.78;;;4.19;78.47
15263;BME280;7733;51.554;13.590;2023-11-22T01:16:54;101344.19;;;4.21;78.28
15263;BME280;7733;51.554;13.590;2023-11-22T01:19:20;101355.50;;;3.63;79.02
15263;BME280;7733;51.554;13.590;2023-11-22T01:21:46;101356.41;;;4.25;78.30
15263;BME280;7733;51.554;13.590;2023-11-22T01:24:12;101353.88;;;3.97;78.03
15263;BME280;7733;51.554;13.590;2023-11-22T01:26:38;101358.91;;;3.91;78.30
15263;BME280;7733;51.554;13.590;2023-11-22T01:29:04;101355.81;;;3.74;78.24
15263;BME280;7733;51.554;13.590;2023-11-22T01:31:30;101346.38;;;4.06;77.80
15263;BME280;7733;51.554;13.590;2023-11-22T01:33:58;101350.16;;;4.19;77.31
15263;BME280;7733;51.554;13.590;2023-11-22T01:36:26;101355.94;;;3.79;78.44
15263;BME280;7733;51.554;13.590;2023-11-22T01:38:53;101357.91;;;4.17;77.16
15263;BME280;7733;51.554;13.590;2023-11-22T01:41:19;101342.22;;;4.13;77.33
15263;BME280;7733;51.554;13.590;2023-11-22T01:43:45;101335.31;;;4.13;76.77
15263;BME280;7733;51.554;13.590;2023-11-22T01:46:24;101337.47;;;3.98;76.76
15263;BME280;7733;51.554;13.590;2023-11-22T01:48:52;101342.88;;;4.06;76.55
15263;BME280;7733;51.554;13.590;2023-11-22T01:51:23;101352.72;;;3.86;76.58
15263;BME280;7733;51.554;13.590;2023-11-22T01:53:53;101354.66;;;3.94;76.70
15263;BME280;7733;51.554;13.590;2023-11-22T01:56:22;101362.97;;;3.81;77.41
15263;BME280;7733;51.554;13.590;2023-11-22T01:58:49;101368.22;;;3.84;78.13
15263;BME280;7733;51.554;13.590;2023-11-22T02:01:15;101372.69;;;3.60;77.82
15263;BME280;7733;51.554;13.590;2023-11-22T02:03:41;101376.09;;;3.59;77.40
15263;BME280;7733;51.554;13.590;2023-11-22T02:06:08;101374.50;;;3.92;76.92
15263;BME280;7733;51.554;13.590;2023-11-22T02:08:37;101370.25;;;3.94;76.94
15263;BME280;7733;51.554;13.590;2023-11-22T02:11:03;101370.28;;;3.96;76.76
15263;BME280;7733;51.554;13.590;2023-11-22T02:13:31;101381.47;;;3.93;77.08
15263;BME280;7733;51.554;13.590;2023-11-22T02:15:58;101374.91;;;3.76;77.27
15263;BME280;7733;51.554;13.590;2023-11-22T02:18:28;101380.28;;;3.82;76.81
15263;BME280;7733;51.554;13.590;2023-11-22T02:20:53;101378.69;;;3.30;77.55
15263;BME280;7733;51.554;13.590;2023-11-22T02:23:19;101387.88;;;3.48;77.66
15263;BME280;7733;51.554;13.590;2023-11-22T02:25:45;101399.72;;;3.40;76.84
15263;BME280;7733;51.554;13.590;2023-11-22T02:28:13;101403.94;;;3.93;76.55
15263;BME280;7733;51.554;13.590;2023-11-22T02:30:40;101402.28;;;3.11;78.13
15263;BME280;7733;51.554;13.590;2023-11-22T02:33:06;101399.28;;;3.53;77.16
15263;BME280;7733;51.554;13.590;2023-11-22T02:35:32;101395.28;;;3.92;76.28
15263;BME280;7733;51.554;13.590;2023-11-22T02:37:59;101386.25;;;3.51;76.77
15263;BME280;7733;51.554;13.590;2023-11-22T02:40:25;101405.41;;;3.28;77.78
15263;BME280;7733;51.554;13.590;2023-11-22T02:42:53;101406.59;;;3.66;77.06
15263;BME280;7733;51.554;13.590;2023-11-22T02:45:25;101405.69;;;3.64;77.33
15263;BME280;7733;51.554;13.590;2023-11-22T02:47:51;101407.16;;;3.02;77.42
15263;BME280;7733;51.554;13.590;2023-11-22T02:50:18;101401.78;;;3.50;77.25
15263;BME280;7733;51.554;13.590;2023-11-22T02:52:44;101396.44;;;3.74;76.14
15263;BME280;7733;51.554;13.590;2023-11-22T02:55:10;101395.47;;;3.70;76.14
15263;BME280;7733;51.554;13.590;2023-11-22T02:57:39;101414.81;;;3.24;77.71
15263;BME280;7733;51.554;13.590;2023-11-22T03:00:09;101425.84;;;3.19;76.76
15263;BME280;7733;51.554;13.590;2023-11-22T03:02:41;101430.56;;;3.86;76.09
15263;BME280;7733;51.554;13.590;2023-11-22T03:05:08;101439.22;;;3.31;77.27
15263;BME280;7733;51.554;13.590;2023-11-22T03:07:38;101439.94;;;3.27;78.62
15263;BME280;7733;51.554;13.590;2023-11-22T03:10:04;101432.72;;;3.18;77.70
15263;BME280;7733;51.554;13.590;2023-11-22T03:12:33;101436.22;;;3.19;77.67
15263;BME280;7733;51.554;13.590;2023-11-22T03:14:59;101438.75;;;3.43;77.30
15263;BME280;7733;51.554;13.590;2023-11-22T03:17:28;101457.44;;;3.07;77.65
15263;BME280;7733;51.554;13.590;2023-11-22T03:19:55;101455.53;;;2.78;78.76
15263;BME280;7733;51.554;13.590;2023-11-22T03:22:27;101463.78;;;3.17;77.71
15263;BME280;7733;51.554;13.590;2023-11-22T03:24:56;101462.44;;;3.01;78.14
15263;BME280;7733;51.554;13.590;2023-11-22T03:27:22;101467.91;;;3.10;77.11
15263;BME280;7733;51.554;13.590;2023-11-22T03:29:49;101468.41;;;2.74;79.26
15263;BME280;7733;51.554;13.590;2023-11-22T03:32:15;101475.75;;;3.39;77.65
15263;BME280;7733;51.554;13.590;2023-11-22T03:34:40;101488.31;;;3.26;76.45
15263;BME280;7733;51.554;13.590;2023-11-22T03:37:06;101488.63;;;3.10;77.89
15263;BME280;7733;51.554;13.590;2023-11-22T03:39:32;101488.44;;;2.80;78.33
15263;BME280;7733;51.554;13.590;2023-11-22T03:41:58;101484.53;;;3.17;77.71
15263;BME280;7733;51.554;13.590;2023-11-22T03:44:24;101491.22;;;2.85;77.97
15263;BME280;7733;51.554;13.590;2023-11-22T03:46:49;101500.19;;;3.20;78.01
15263;BME280;7733;51.554;13.590;2023-11-22T03:49:15;101513.59;;;2.83;78.63
15263;BME280;7733;51.554;13.590;2023-11-22T03:51:42;101520.22;;;3.00;77.28
15263;BME280;7733;51.554;13.590;2023-11-22T03:54:08;101517.53;;;3.21;77.07
15263;BME280;7733;51.554;13.590;2023-11-22T03:56:36;101528.53;;;3.15;77.81
15263;BME280;7733;51.554;13.590;2023-11-22T03:59:02;101531.53;;;3.26;77.11
15263;BME280;7733;51.554;13.590;2023-11-22T04:01:29;101535.56;;;3.43;76.93
15263;BME280;7733;51.554;13.590;2023-11-22T04:03:55;101546.50;;;3.34;76.54
15263;BME280;7733;51.554;13.590;2023-11-22T04:06:20;101548.88;;;3.28;76.47
15263;BME280;7733;51.554;13.590;2023-11-22T04:08:47;101557.50;;;2.80;78.07
15263;BME280;7733;51.554;13.590;2023-11-22T04:11:13;101567.56;;;3.44;76.57
15263;BME280;7733;51.554;13.590;2023-11-22T04:13:39;101568.22;;;3.38;75.95
15263;BME280;7733;51.554;13.590;2023-11-22T04:16:06;101577.69;;;3.12;77.37
15263;BME280;7733;51.554;13.590;2023-11-22T04:18:35;101580.44;;;3.17;77.21
15263;BME280;7733;51.554;13.590;2023-11-22T04:21:02;101586.31;;;3.36;77.02
15263;BME280;7733;51.554;13.590;2023-11-22T04:23:33;101593.41;;;2.93;77.08
15263;BME280;7733;51.554;13.590;2023-11-22T04:26:00;101582.78;;;2.85;77.68
15263;BME280;7733;51.554;13.590;2023-11-22T04:28:30;101590.94;;;2.96;77.95
15263;BME280;7733;51.554;13.590;2023-11-22T04:30:56;101586.50;;;3.17;77.02
15263;BME280;7733;51.554;13.590;2023-11-22T04:33:23;101603.34;;;2.81;77.17
15263;BME280;7733;51.554;13.590;2023-11-22T04:35:49;101601.06;;;2.66;77.95
15263;BME280;7733;51.554;13.590;2023-11-22T04:38:16;101598.50;;;2.90;77.76
15263;BME280;7733;51.554;13.590;2023-11-22T04:40:44;101591.97;;;2.77;77.65
15263;BME280;7733;51.554;13.590;2023-11-22T04:43:09;101586.47;;;2.92;76.84
15263;BME280;7733;51.554;13.590;2023-11-22T04:45:35;101598.28;;;2.84;77.86
15263;BME280;7733;51.554;13.590;2023-11-22T04:48:01;101608.38;;;2.78;77.38
15263;BME280;7733;51.554;13.590;2023-11-22T04:50:27;101613.59;;;2.55;77.50
15263;BME280;7733;51.554;13.590;2023-11-22T04:52:53;101614.41;;;2.54;77.71
15263;BME280;7733;51.554;13.590;2023-11-22T04:55:19;101618.31;;;2.65;77.34
15263;BME280;7733;51.554;13.590;2023-11-22T04:57:46;101626.47;;;2.76;76.55
15263;BME280;7733;51.554;13.590;2023-11-22T05:00:12;101621.25;;;2.30;78.50
15263;BME280;7733;51.554;13.590;2023-11-22T05:02:38;101626.16;;;2.91;77.56
15263;BME280;7733;51.554;13.590;2023-11-22T05:05:06;101615.44;;;3.04;75.93
15263;BME280;7733;51.554;13.590;2023-11-22T05:07:32;101622.88;;;2.72;76.51
15263;BME280;7733;51.554;13.590;2023-11-22T05:09:58;101636.34;;;2.19;78.28
15263;BME280;7733;51.554;13.590;2023-11-22T05:12:24;101626.47;;;2.54;77.91
15263;BME280;7733;51.554;13.590;2023-11-22T05:14:49;101623.97;;;2.12;78.65
15263;BME280;7733;51.554;13.590;2023-11-22T05:17:15;101636.19;;;2.37;78.14
15263;BME280;7733;51.554;13.590;2023-11-22T05:19:41;101635.78;;;2.71;77.53
15263;BME280;7733;51.554;13.590;2023-11-22T05:22:07;101636.31;;;2.85;77.02
15263;BME280;7733;51.554;13.590;2023-11-22T05:24:33;101634.31;;;2.55;77.68
15263;BME280;7733;51.554;13.590;2023-11-22T05:27:00;101638.28;;;2.92;77.29
15263;BME280;7733;51.554;13.590;2023-11-22T05:29:27;101636.81;;;2.98;77.08
15263;BME280;7733;51.554;13.590;2023-11-22T05:31:53;101641.91;;;2.73;76.98
15263;BME280;7733;51.554;13.590;2023-11-22T05:34:18;101638.41;;;2.95;75.81
15263;BME280;7733;51.554;13.590;2023-11-22T05:36:44;101630.06;;;3.02;75.75
15263;BME280;7733;51.554;13.590;2023-11-22T05:39:10;101632.22;;;2.91;76.86
15263;BME280;7733;51.554;13.590;2023-11-22T05:41:38;101633.31;;;2.98;76.91
15263;BME280;7733;51.554;13.590;2023-11-22T05:44:04;101627.81;;;3.36;75.58
15263;BME280;7733;51.554;13.590;2023-11-22T05:46:29;101646.06;;;2.92;76.47
15263;BME280;7733;51.554;13.590;2023-11-22T05:48:55;101652.22;;;2.71;76.29
15263;BME280;7733;51.554;13.590;2023-11-22T05:51:21;101656.13;;;2.60;77.84
15263;BME280;7733;51.554;13.590;2023-11-22T05:53:47;101660.22;;;2.78;76.82
15263;BME280;7733;51.554;13.590;2023-11-22T05:56:13;101670.31;;;2.94;76.07
15263;BME280;7733;51.554;13.590;2023-11-22T05:58:40;101670.41;;;2.73;75.66
15263;BME280;7733;51.554;13.590;2023-11-22T06:01:07;101677.94;;;2.89;76.48
15263;BME280;7733;51.554;13.590;2023-11-22T06:03:34;101686.31;;;2.39;77.68
15263;BME280;7733;51.554;13.590;2023-11-22T06:06:00;101689.59;;;2.78;76.63
15263;BME280;7733;51.554;13.590;2023-11-22T06:08:26;101684.59;;;2.83;77.03
15263;BME280;7733;51.554;13.590;2023-11-22T06:10:52;101698.78;;;2.27;78.26
15263;BME280;7733;51.554;13.590;2023-11-22T06:13:19;101699.47;;;2.43;77.90
15263;BME280;7733;51.554;13.590;2023-11-22T06:15:45;101696.44;;;2.33;77.86
15263;BME280;7733;51.554;13.590;2023-11-22T06:18:11;101705.53;;;2.44;77.91
15263;BME280;7733;51.554;13.590;2023-11-22T06:20:40;101708.59;;;2.56;77.17
15263;BME280;7733;51.554;13.590;2023-11-22T06:23:05;101705.06;;;2.99;76.61
15263;BME280;7733;51.554;13.590;2023-11-22T06:25:32;101705.16;;;3.00;75.91
15263;BME280;7733;51.554;13.590;2023-11-22T06:27:58;101708.53;;;2.55;77.66
15263;BME280;7733;51.554;13.590;2023-11-22T06:30:23;101716.69;;;2.86;76.65
15263;BME280;7733;51.554;13.590;2023-11-22T06:32:51;101739.84;;;2.82;76.02
15263;BME280;7733;51.554;13.590;2023-11-22T06:35:17;101747.78;;;2.43;77.06
15263;BME280;7733;51.554;13.590;2023-11-22T06:37:44;101751.84;;;2.17;77.99
15263;BME280;7733;51.554;13.590;2023-11-22T06:40:11;101749.59;;;2.46;77.98
15263;BME280;7733;51.554;13.590;2023-11-22T06:42:43;101752.03;;;2.41;77.44
15263;BME280;7733;51.554;13.590;2023-11-22T06:45:09;101757.13;;;2.60;76.75
15263;BME280;7733;51.554;13.590;2023-11-22T06:47:39;101747.00;;;2.89;75.80
15263;BME280;7733;51.554;13.590;2023-11-22T06:50:05;101737.47;;;3.10;74.86
15263;BME280;7733;51.554;13.590;2023-11-22T06:52:36;101741.22;;;2.73;75.87
15263;BME280;7733;51.554;13.590;2023-11-22T06:55:03;101747.63;;;2.82;76.04
15263;BME280;7733;51.554;13.590;2023-11-22T06:57:28;101741.97;;;2.49;76.05
15263;BME280;7733;51.554;13.590;2023-11-22T06:59:58;101746.84;;;2.41;76.91
15263;BME280;7733;51.554;13.590;2023-11-22T07:02:24;101747.22;;;2.72;76.30
15263;BME280;7733;51.554;13.590;2023-11-22T07:04:50;101746.50;;;2.54;76.88
15263;BME280;7733;51.554;13.590;2023-11-22T07:07:15;101751.72;;;2.77;76.50
15263;BME280;7733;51.554;13.590;2023-11-22T07:09:44;101749.97;;;2.55;76.77
15263;BME280;7733;51.554;13.590;2023-11-22T07:12:11;101750.50;;;3.12;75.19
15263;BME280;7733;51.554;13.590;2023-11-22T07:14:37;101758.97;;;2.85;75.45
15263;BME280;7733;51.554;13.590;2023-11-22T07:17:03;101770.94;;;3.04;75.04
15263;BME280;7733;51.554;13.590;2023-11-22T07:19:32;101775.31;;;3.05;77.20
15263;BME280;7733;51.554;13.590;2023-11-22T07:22:04;101786.84;;;3.13;75.42
15263;BME280;7733;51.554;13.590;2023-11-22T07:24:36;101788.84;;;2.77;77.34
15263;BME280;7733;51.554;13.590;2023-11-22T07:27:02;101792.03;;;2.70;77.24
15263;BME280;7733;51.554;13.590;2023-11-22T07:29:28;101801.16;;;2.60;79.27
15263;BME280;7733;51.554;13.590;2023-11-22T07:31:55;101804.13;;;2.92;77.02
15263;BME280;7733;51.554;13.590;2023-11-22T07:34:23;101810.75;;;2.84;76.08
15263;BME280;7733;51.554;13.590;2023-11-22T07:36:49;101807.44;;;2.88;76.90
15263;BME280;7733;51.554;13.590;2023-11-22T07:39:16;101822.25;;;2.69;76.69
15263;BME280;7733;51.554;13.590;2023-11-22T07:41:45;101831.97;;;2.54;76.68
15263;BME280;7733;51.554;13.590;2023-11-22T07:44:11;101825.19;;;2.37;77.91
15263;BME280;7733;51.554;13.590;2023-11-22T07:46:37;101827.66;;;2.75;75.87
15263;BME280;7733;51.554;13.590;2023-11-22T07:49:03;101832.97;;;2.79;76.40
15263;BME280;7733;51.554;13.590;2023-11-22T07:51:28;101829.94;;;2.89;75.38
15263;BME280;7733;51.554;13.590;2023-11-22T07:53:54;101833.03;;;3.01;75.38
15263;BME280;7733;51.554;13.590;2023-11-22T07:56:21;101837.81;;;3.35;74.50
15263;BME280;7733;51.554;13.590;2023-11-22T07:58:46;101839.19;;;2.82;75.32
15263;BME280;7733;51.554;13.590;2023-11-22T08:01:12;101835.59;;;2.38;77.62
15263;BME280;7733;51.554;13.590;2023-11-22T08:03:40;101834.31;;;3.12;75.30
15263;BME280;7733;51.554;13.590;2023-11-22T08:06:11;101841.84;;;2.84;75.12
15263;BME280;7733;51.554;13.590;2023-11-22T08:08:37;101842.97;;;2.69;76.56
15263;BME280;7733;51.554;13.590;2023-11-22T08:11:06;101843.09;;;2.72;74.97
15263;BME280;7733;51.554;13.590;2023-11-22T08:13:41;101849.91;;;2.70;76.99
15263;BME280;7733;51.554;13.590;2023-11-22T08:16:09;101858.75;;;2.96;75.37
15263;BME280;7733;51.554;13.590;2023-11-22T08:18:34;101858.16;;;2.81;75.77
15263;BME280;7733;51.554;13.590;2023-11-22T08:21:00;101860.09;;;2.87;74.77
15263;BME280;7733;51.554;13.590;2023-11-22T08:23:26;101873.53;;;2.99;75.01
15263;BME280;7733;51.554;13.590;2023-11-22T08:25:56;101869.97;;;2.55;74.99
15263;BME280;7733;51.554;13.590;2023-11-22T08:28:22;101863.44;;;2.84;74.66
15263;BME280;7733;51.554;13.590;2023-11-22T08:30:48;101862.16;;;2.74;76.02
15263;BME280;7733;51.554;13.590;2023-11-22T08:33:14;101858.63;;;2.52;75.87
15263;BME280;7733;51.554;13.590;2023-11-22T08:35:40;101854.72;;;2.61;75.94
15263;BME280;7733;51.554;13.590;2023-11-22T08:38:06;101848.66;;;2.82;75.60
15263;BME280;7733;51.554;13.590;2023-11-22T08:40:35;101842.88;;;3.10;73.73
15263;BME280;7733;51.554;13.590;2023-11-22T08:43:03;101843.69;;;3.09;73.52
15263;BME280;7733;51.554;13.590;2023-11-22T08:45:30;101840.56;;;2.74;75.28
15263;BME280;7733;51.554;13.590;2023-11-22T08:47:57;101845.25;;;2.83;74.44
15263;BME280;7733;51.554;13.590;2023-11-22T08:50:24;101848.81;;;3.07;74.35
15263;BME280;7733;51.554;13.590;2023-11-22T08:52:50;101853.03;;;3.26;73.82
15263;BME280;7733;51.554;13.590;2023-11-22T08:55:19;101852.19;;;3.04;73.85
15263;BME280;7733;51.554;13.590;2023-11-22T08:57:49;101856.34;;;3.01;73.91
15263;BME280;7733;51.554;13.590;2023-11-22T09:00:18;101861.63;;;3.25;73.28
15263;BME280;7733;51.554;13.590;2023-11-22T09:02:54;101870.31;;;1.84;77.91
15263;BME280;7733;51.554;13.590;2023-11-22T09:05:23;101871.16;;;2.83;75.99
15263;BME280;7733;51.554;13.590;2023-11-22T09:07:49;101875.25;;;3.42;73.48
15263;BME280;7733;51.554;13.590;2023-11-22T09:10:15;101862.63;;;3.28;73.97
15263;BME280;7733;51.554;13.590;2023-11-22T09:12:44;101850.19;;;2.99;75.10
15263;BME280;7733;51.554;13.590;2023-11-22T09:15:12;101857.38;;;2.23;76.91
15263;BME280;7733;51.554;13.590;2023-11-22T09:17:43;101850.44;;;2.83;75.47
15263;BME280;7733;51.554;13.590;2023-11-22T09:20:10;101844.44;;;3.27;73.10
15263;BME280;7733;51.554;13.590;2023-11-22T09:22:48;101842.69;;;3.05;73.58
15263;BME280;7733;51.554;13.590;2023-11-22T09:25:25;101842.13;;;3.34;73.35
15263;BME280;7733;51.554;13.590;2023-11-22T09:27:54;101841.34;;;3.37;73.17
15263;BME280;7733;51.554;13.590;2023-11-22T09:30:23;101839.41;;;3.54;72.39
15263;BME280;7733;51.554;13.590;2023-11-22T09:33:10;101834.75;;;3.23;72.62
15263;BME280;7733;51.554;13.590;2023-11-22T09:35:37;101832.16;;;3.00;73.72
15263;BME280;7733;51.554;13.590;2023-11-22T09:38:06;101832.13;;;3.21;73.37
15263;BME280;7733;51.554;13.590;2023-11-22T09:40:44;101845.19;;;3.24;74.09
15263;BME280;7733;51.554;13.590;2023-11-22T09:43:12;101842.53;;;3.67;72.44
15263;BME280;7733;51.554;13.590;2023-11-22T09:45:44;101847.06;;;3.28;73.52
15263;BME280;7733;51.554;13.590;2023-11-22T09:48:21;101857.59;;;3.11;74.62
15263;BME280;7733;51.554;13.590;2023-11-22T09:51:09;101864.88;;;3.42;73.72
15263;BME280;7733;51.554;13.590;2023-11-22T09:56:09;101863.75;;;3.35;73.63
15263;BME280;7733;51.554;13.590;2023-11-22T09:58:41;101865.56;;;3.82;72.46
15263;BME280;7733;51.554;13.590;2023-11-22T10:01:14;101862.41;;;3.67;72.82
15263;BME280;7733;51.554;13.590;2023-11-22T10:03:40;101866.78;;;3.46;74.04
15263;BME280;7733;51.554;13.590;2023-11-22T10:06:07;101862.59;;;3.95;71.61
15263;BME280;7733;51.554;13.590;2023-11-22T10:08:33;101867.28;;;4.30;71.19
15263;BME280;7733;51.554;13.590;2023-11-22T10:11:01;101855.56;;;3.93;72.50
15263;BME280;7733;51.554;13.590;2023-11-22T10:13:27;101849.34;;;4.12;71.42
15263;BME280;7733;51.554;13.590;2023-11-22T10:15:53;101844.59;;;3.54;71.83
15263;BME280;7733;51.554;13.590;2023-11-22T10:18:20;101827.47;;;3.81;71.96
15263;BME280;7733;51.554;13.590;2023-11-22T10:20:49;101824.03;;;4.06;69.71
15263;BME280;7733;51.554;13.590;2023-11-22T10:23:19;101819.25;;;4.18;70.43
15263;BME280;7733;51.554;13.590;2023-11-22T10:25:52;101832.00;;;4.11;70.29
15263;BME280;7733;51.554;13.590;2023-11-22T10:28:26;101827.84;;;3.68;70.78
15263;BME280;7733;51.554;13.590;2023-11-22T10:30:52;101818.25;;;3.89;70.37
15263;BME280;7733;51.554;13.590;2023-11-22T10:33:18;101827.94;;;4.19;70.11
15263;BME280;7733;51.554;13.590;2023-11-22T10:35:49;101823.91;;;3.79;72.31
15263;BME280;7733;51.554;13.590;2023-11-22T10:38:16;101843.75;;;3.32;73.46
15263;BME280;7733;51.554;13.590;2023-11-22T10:40:43;101837.19;;;4.11;70.97
15263;BME280;7733;51.554;13.590;2023-11-22T10:43:12;101843.00;;;4.04;70.44
15263;BME280;7733;51.554;13.590;2023-11-22T10:45:38;101853.84;;;4.17;69.21
15263;BME280;7733;51.554;13.590;2023-11-22T10:48:07;101856.66;;;4.00;69.38
15263;BME280;7733;51.554;13.590;2023-11-22T10:50:34;101852.44;;;3.79;70.47
15263;BME280;7733;51.554;13.590;2023-11-22T10:53:07;101862.75;;;4.00;69.10
15263;BME280;7733;51.554;13.590;2023-11-22T10:55:50;101860.66;;;4.14;68.96
15263;BME280;7733;51.554;13.590;2023-11-22T10:58:17;101874.19;;;4.29;68.72
15263;BME280;7733;51.554;13.590;2023-11-22T11:00:45;101883.97;;;3.66;69.84
15263;BME280;7733;51.554;13.590;2023-11-22T11:03:17;101881.00;;;3.57;70.19
15263;BME280;7733;51.554;13.590;2023-11-22T11:05:55;101883.59;;;2.91;72.08
15263;BME280;7733;51.554;13.590;2023-11-22T11:08:26;101874.69;;;3.95;69.94
15263;BME280;7733;51.554;13.590;2023-11-22T11:10:53;101876.09;;;3.20;71.87
15263;BME280;7733;51.554;13.590;2023-11-22T11:13:22;101885.44;;;3.59;71.49
15263;BME280;7733;51.554;13.590;2023-11-22T11:15:50;101882.72;;;2.91;73.41
15263;BME280;7733;51.554;13.590;2023-11-22T11:18:18;101883.91;;;2.99;74.05
15263;BME280;7733;51.554;13.590;2023-11-22T11:20:56;101890.31;;;3.29;71.93
15263;BME280;7733;51.554;13.590;2023-11-22T11:23:27;101888.41;;;3.03;74.06
15263;BME280;7733;51.554;13.590;2023-11-22T11:25:58;101888.19;;;3.19;72.83
15263;BME280;7733;51.554;13.590;2023-11-22T11:28:44;101896.69;;;3.38;73.73
15263;BME280;7733;51.554;13.590;2023-11-22T11:31:10;101901.53;;;3.73;70.48
15263;BME280;7733;51.554;13.590;2023-11-22T11:33:54;101889.72;;;4.04;70.75
15263;BME280;7733;51.554;13.590;2023-11-22T11:36:30;101895.69;;;3.79;71.54
15263;BME280;7733;51.554;13.590;2023-11-22T11:39:00;101895.81;;;3.37;72.71
15263;BME280;7733;51.554;13.590;2023-11-22T11:41:34;101879.09;;;3.97;71.07
15263;BME280;7733;51.554;13.590;2023-11-22T11:44:07;101883.91;;;4.35;69.32
15263;BME280;7733;51.554;13.590;2023-11-22T11:46:36;101888.94;;;3.82;70.70
15263;BME280;7733;51.554;13.590;2023-11-22T11:49:07;101894.13;;;3.82;69.90
15263;BME280;7733;51.554;13.590;2023-11-22T11:51:36;101876.19;;;3.88;70.07
15263;BME280;7733;51.554;13.590;2023-11-22T11:54:03;101856.84;;;4.53;68.50
15263;BME280;7733;51.554;13.590;2023-11-22T11:56:29;101866.50;;;4.32;69.83
15263;BME280;7733;51.554;13.590;2023-11-22T11:58:58;101871.91;;;4.38;68.84
15263;BME280;7733;51.554;13.590;2023-11-22T12:01:28;101871.81;;;4.86;67.86
15263;BME280;7733;51.554;13.590;2023-11-22T12:04:02;101862.25;;;4.85;66.79
15263;BME280;7733;51.554;13.590;2023-11-22T12:06:29;101853.50;;;4.32;68.68
15263;BME280;7733;51.554;13.590;2023-11-22T12:08:56;101841.09;;;4.74;67.15
15263;BME280;7733;51.554;13.590;2023-11-22T12:11:23;101820.50;;;4.80;66.20
15263;BME280;7733;51.554;13.590;2023-11-22T12:13:49;101822.09;;;5.02;65.45
15263;BME280;7733;51.554;13.590;2023-11-22T12:16:17;101816.09;;;5.33;65.29
15263;BME280;7733;51.554;13.590;2023-11-22T12:18:46;101812.75;;;5.09;65.84
15263;BME280;7733;51.554;13.590;2023-11-22T12:21:13;101815.47;;;4.59;67.57
15263;BME280;7733;51.554;13.590;2023-11-22T12:23:42;101793.31;;;4.98;67.06
15263;BME280;7733;51.554;13.590;2023-11-22T12:26:16;101782.44;;;5.09;66.51
15263;BME280;7733;51.554;13.590;2023-11-22T12:28:48;101783.19;;;5.05;65.79
15263;BME280;7733;51.554;13.590;2023-11-22T12:31:15;101780.25;;;5.23;65.44
15263;BME280;7733;51.554;13.590;2023-11-22T12:33:43;101779.09;;;5.42;65.25
15263;BME280;7733;51.554;13.590;2023-11-22T12:36:10;101781.00;;;4.64;66.90
15263;BME280;7733;51.554;13.590;2023-11-22T12:38:37;101760.56;;;3.98;67.11
15263;BME280;7733;51.554;13.590;2023-11-22T12:41:05;101747.72;;;4.53;67.48
15263;BME280;7733;51.554;13.590;2023-11-22T12:43:32;101754.78;;;4.31;65.72
15263;BME280;7733;51.554;13.590;2023-11-22T12:46:06;101750.38;;;5.10;65.41
15263;BME280;7733;51.554;13.590;2023-11-22T12:48:33;101748.09;;;4.64;65.40
15263;BME280;7733;51.554;13.590;2023-11-22T12:51:00;101746.38;;;4.39;67.65
15263;BME280;7733;51.554;13.590;2023-11-22T12:53:26;101743.66;;;4.09;68.13
15263;BME280;7733;51.554;13.590;2023-11-22T12:55:56;101744.97;;;4.22;68.74
15263;BME280;7733;51.554;13.590;2023-11-22T12:58:25;101735.56;;;4.52;67.17
15263;BME280;7733;51.554;13.590;2023-11-22T13:00:53;101730.38;;;4.52;67.56
15263;BME280;7733;51.554;13.590;2023-11-22T13:03:24;101748.06;;;3.86;69.72
15263;BME280;7733;51.554;13.590;2023-11-22T13:05:51;101745.69;;;4.43;67.68